sensor_id;sensor_type;location;lat;lon;timestamp;pressure;altitude;pressure_sealevel;temperature;humidity
13553;BME280;6847;48.830;9.116;2023-12-20T00:00:13;97940.66;;;10.32;67.06
13553;BME280;6847;48.830;9.116;2023-12-20T00:02:42;97935.25;;;10.32;66.62
13553;BME280;6847;48.830;9.116;2023-12-20T00:05:13;97937.13;;;10.32;67.19
13553;BME280;6847;48.830;9.116;2023-12-20T00:07:40;97924.16;;;10.29;67.00
13553;BME280;6847;48.830;9.116;2023-12-20T00:10:07;97920.94;;;10.27;66.54
13553;BME280;6847;48.830;9.116;2023-12-20T00:12:34;97921.16;;;10.30;67.47
13553;BME280;6847;48.830;9.116;2023-12-20T00:15:01;97924.44;;;10.27;67.03
13553;BME280;6847;48.830;9.116;2023-12-20T00:17:30;97921.47;;;10.24;67.05
13553;BME280;6847;48.830;9.116;2023-12-20T00:19:57;97916.59;;;10.21;67.42
13553;BME280;6847;48.830;9.116;2023-12-20T00:22:24;97916.31;;;10.17;67.13
13553;BME280;6847;48.830;9.116;2023-12-20T00:24:51;97913.88;;;10.16;66.88
13553;BME280;6847;48.830;9.116;2023-12-20T00:27:17;97905.75;;;10.16;67.47
13553;BME280;6847;48.830;9.116;2023-12-20T00:29:45;97905.22;;;10.14;67.24
13553;BME280;6847;48.830;9.116;2023-12-20T00:32:15;97907.38;;;10.12;66.89
13553;BME280;6847;48.830;9.116;2023-12-20T00:34:44;97901.16;;;10.11;66.57
13553;BME280;6847;48.830;9.116;2023-12-20T00:37:12;97904.13;;;10.10;66.52
13553;BME280;6847;48.830;9.116;2023-12-20T00:39:39;97900.91;;;10.08;67.02
13553;BME280;6847;48.830;9.116;2023-12-20T00:42:07;97897.66;;;10.06;67.39
13553;BME280;6847;48.830;9.116;2023-12-20T00:44:34;97902.53;;;10.03;67.26
13553;BME280;6847;48.830;9.116;2023-12-20T00:47:02;97899.56;;;10.00;67.47
13553;BME280;6847;48.830;9.116;2023-12-20T00:49:32;97897.69;;;9.95;66.71
13553;BME280;6847;48.830;9.116;2023-12-20T00:52:00;97905.28;;;9.88;67.31
13553;BME280;6847;48.830;9.116;2023-12-20T00:54:27;97908.50;;;9.85;66.98
13553;BME280;6847;48.830;9.116;2023-12-20T00:56:56;97897.69;;;9.85;67.20
13553;BME280;6847;48.830;9.116;2023-12-20T00:59:22;97905.81;;;9.80;66.69
13553;BME280;6847;48.830;9.116;2023-12-20T01:01:49;97896.63;;;9.76;67.39
13553;BME280;6847;48.830;9.116;2023-12-20T01:04:16;97902.56;;;9.73;66.85
13553;BME280;6847;48.830;9.116;2023-12-20T01:06:43;97899.34;;;9.66;67.97
13553;BME280;6847;48.830;9.116;2023-12-20T01:09:12;97909.31;;;9.60;67.32
13553;BME280;6847;48.830;9.116;2023-12-20T01:11:40;97910.69;;;9.58;67.73
13553;BME280;6847;48.830;9.116;2023-12-20T01:14:08;97907.44;;;9.56;67.57
13553;BME280;6847;48.830;9.116;2023-12-20T01:16:35;97781.53;;;8.79;67.43
13553;BME280;6847;48.830;9.116;2023-12-20T01:19:03;97904.72;;;9.51;67.84
13553;BME280;6847;48.830;9.116;2023-12-20T01:21:31;97903.13;;;9.50;67.44
13553;BME280;6847;48.830;9.116;2023-12-20T01:23:58;97909.63;;;9.49;68.04
13553;BME280;6847;48.830;9.116;2023-12-20T01:26:28;97906.91;;;9.49;67.79
13553;BME280;6847;48.830;9.116;2023-12-20T01:28:55;97849.31;;;9.08;68.04
13553;BME280;6847;48.830;9.116;2023-12-20T01:31:22;97920.41;;;9.49;67.74
13553;BME280;6847;48.830;9.116;2023-12-20T01:33:48;97916.91;;;9.48;67.43
13553;BME280;6847;48.830;9.116;2023-12-20T01:36:15;97921.50;;;9.48;67.43
13553;BME280;6847;48.830;9.116;2023-12-20T01:38:42;97742.56;;;8.34;67.25
13553;BME280;6847;48.830;9.116;2023-12-20T01:41:10;97923.66;;;9.46;68.45
13553;BME280;6847;48.830;9.116;2023-12-20T01:43:38;97883.13;;;9.20;67.89
13553;BME280;6847;48.830;9.116;2023-12-20T01:46:05;97805.78;;;8.64;67.80
13553;BME280;6847;48.830;9.116;2023-12-20T01:48:32;97921.47;;;9.43;68.17
13553;BME280;6847;48.830;9.116;2023-12-20T01:50:59;97867.97;;;9.09;67.55
13553;BME280;6847;48.830;9.116;2023-12-20T01:53:27;97909.03;;;9.42;67.76
13553;BME280;6847;48.830;9.116;2023-12-20T01:55:55;97875.00;;;9.20;68.15
13553;BME280;6847;48.830;9.116;2023-12-20T01:58:23;97906.88;;;9.44;67.97
13553;BME280;6847;48.830;9.116;2023-12-20T02:00:51;97908.50;;;9.45;67.36
13553;BME280;6847;48.830;9.116;2023-12-20T02:03:18;97915.53;;;9.46;67.63
13553;BME280;6847;48.830;9.116;2023-12-20T02:05:46;97730.69;;;8.30;67.84
13553;BME280;6847;48.830;9.116;2023-12-20T02:08:13;97751.25;;;8.46;68.01
13553;BME280;6847;48.830;9.116;2023-12-20T02:10:39;97905.84;;;9.50;67.56
13553;BME280;6847;48.830;9.116;2023-12-20T02:13:07;97912.03;;;9.50;68.41
13553;BME280;6847;48.830;9.116;2023-12-20T02:15:33;97706.94;;;8.22;67.61
13553;BME280;6847;48.830;9.116;2023-12-20T02:18:04;97913.38;;;9.48;67.84
13553;BME280;6847;48.830;9.116;2023-12-20T02:20:31;97889.59;;;9.30;68.20
13553;BME280;6847;48.830;9.116;2023-12-20T02:23:01;97922.56;;;9.47;68.68
13553;BME280;6847;48.830;9.116;2023-12-20T02:25:29;97913.38;;;9.43;68.28
13553;BME280;6847;48.830;9.116;2023-12-20T02:27:55;97904.19;;;9.39;67.82
13553;BME280;6847;48.830;9.116;2023-12-20T02:30:22;97917.16;;;9.37;68.30
13553;BME280;6847;48.830;9.116;2023-12-20T02:32:50;97922.56;;;9.37;68.67
13553;BME280;6847;48.830;9.116;2023-12-20T02:35:16;97915.78;;;9.34;68.49
13553;BME280;6847;48.830;9.116;2023-12-20T02:37:43;97916.88;;;9.33;68.87
13553;BME280;6847;48.830;9.116;2023-12-20T02:40:12;97921.19;;;9.34;68.45
13553;BME280;6847;48.830;9.116;2023-12-20T02:42:39;97920.38;;;9.34;69.10
13553;BME280;6847;48.830;9.116;2023-12-20T02:45:06;97917.69;;;9.34;68.59
13553;BME280;6847;48.830;9.116;2023-12-20T02:47:33;97901.19;;;9.25;68.31
13553;BME280;6847;48.830;9.116;2023-12-20T02:50:00;97867.69;;;9.06;68.86
13553;BME280;6847;48.830;9.116;2023-12-20T02:52:28;97756.09;;;8.39;68.83
13553;BME280;6847;48.830;9.116;2023-12-20T02:54:55;97917.16;;;9.37;69.25
13553;BME280;6847;48.830;9.116;2023-12-20T02:57:23;97916.34;;;9.36;68.94
13553;BME280;6847;48.830;9.116;2023-12-20T02:59:50;97915.00;;;9.34;69.01
13553;BME280;6847;48.830;9.116;2023-12-20T03:02:16;97899.84;;;9.22;69.08
13553;BME280;6847;48.830;9.116;2023-12-20T03:04:43;97858.19;;;8.93;69.02
13553;BME280;6847;48.830;9.116;2023-12-20T03:07:09;97921.22;;;9.29;69.41
13553;BME280;6847;48.830;9.116;2023-12-20T03:09:37;97840.91;;;8.79;69.41
13553;BME280;6847;48.830;9.116;2023-12-20T03:12:04;97921.19;;;9.24;69.48
13553;BME280;6847;48.830;9.116;2023-12-20T03:14:33;97908.97;;;9.01;69.52
13553;BME280;6847;48.830;9.116;2023-12-20T03:16:59;97933.34;;;9.16;69.96
13553;BME280;6847;48.830;9.116;2023-12-20T03:19:27;97924.94;;;9.13;69.02
13553;BME280;6847;48.830;9.116;2023-12-20T03:21:54;97935.19;;;9.11;69.32
13553;BME280;6847;48.830;9.116;2023-12-20T03:24:20;97932.50;;;9.06;69.32
13553;BME280;6847;48.830;9.116;2023-12-20T03:26:48;97943.28;;;9.01;69.87
13553;BME280;6847;48.830;9.116;2023-12-20T03:29:15;97727.22;;;7.67;70.05
13553;BME280;6847;48.830;9.116;2023-12-20T03:31:44;97920.56;;;8.91;69.65
13553;BME280;6847;48.830;9.116;2023-12-20T03:34:11;97940.81;;;8.94;69.63
13553;BME280;6847;48.830;9.116;2023-12-20T03:36:40;97934.63;;;8.94;69.67
13553;BME280;6847;48.830;9.116;2023-12-20T03:39:06;97937.31;;;8.88;69.95
13553;BME280;6847;48.830;9.116;2023-12-20T03:41:35;97940.53;;;8.85;70.00
13553;BME280;6847;48.830;9.116;2023-12-20T03:44:01;97944.56;;;8.83;70.20
13553;BME280;6847;48.830;9.116;2023-12-20T03:46:28;97942.94;;;8.82;69.95
13553;BME280;6847;48.830;9.116;2023-12-20T03:48:57;97948.34;;;8.82;69.70
13553;BME280;6847;48.830;9.116;2023-12-20T03:51:23;97952.13;;;8.81;70.14
13553;BME280;6847;48.830;9.116;2023-12-20T03:53:50;97945.63;;;8.77;70.06
13553;BME280;6847;48.830;9.116;2023-12-20T03:56:16;97863.63;;;8.26;69.86
13553;BME280;6847;48.830;9.116;2023-12-20T03:58:43;97939.66;;;8.70;70.33
13553;BME280;6847;48.830;9.116;2023-12-20T04:01:10;97943.44;;;8.69;69.85
13553;BME280;6847;48.830;9.116;2023-12-20T04:03:39;97941.00;;;8.67;70.38
13553;BME280;6847;48.830;9.116;2023-12-20T04:06:08;97913.09;;;8.41;70.61
13553;BME280;6847;48.830;9.116;2023-12-20T04:08:35;97944.78;;;8.66;70.38
13553;BME280;6847;48.830;9.116;2023-12-20T04:11:01;97952.63;;;8.68;70.15
13553;BME280;6847;48.830;9.116;2023-12-20T04:13:29;97947.78;;;8.70;70.04
13553;BME280;6847;48.830;9.116;2023-12-20T04:15:55;97941.31;;;8.71;70.10
13553;BME280;6847;48.830;9.116;2023-12-20T04:18:22;97945.88;;;8.70;69.82
13553;BME280;6847;48.830;9.116;2023-12-20T04:20:51;97951.53;;;8.69;70.11
13553;BME280;6847;48.830;9.116;2023-12-20T04:23:19;97835.41;;;7.91;70.13
13553;BME280;6847;48.830;9.116;2023-12-20T04:25:46;97960.72;;;8.73;70.48
13553;BME280;6847;48.830;9.116;2023-12-20T04:28:12;97962.34;;;8.74;70.30
13553;BME280;6847;48.830;9.116;2023-12-20T04:30:39;97964.50;;;8.72;69.89
13553;BME280;6847;48.830;9.116;2023-12-20T04:33:05;97963.97;;;8.70;70.29
13553;BME280;6847;48.830;9.116;2023-12-20T04:35:32;97965.03;;;8.69;70.30
13553;BME280;6847;48.830;9.116;2023-12-20T04:37:59;97970.44;;;8.69;70.53
13553;BME280;6847;48.830;9.116;2023-12-20T04:40:28;97966.13;;;8.73;70.47
13553;BME280;6847;48.830;9.116;2023-12-20T04:42:55;97818.38;;;7.80;70.10
13553;BME280;6847;48.830;9.116;2023-12-20T04:45:22;97984.28;;;8.87;70.20
13553;BME280;6847;48.830;9.116;2023-12-20T04:47:49;97931.50;;;8.54;69.86
13553;BME280;6847;48.830;9.116;2023-12-20T04:50:16;97973.78;;;8.91;70.03
13553;BME280;6847;48.830;9.116;2023-12-20T04:52:43;97983.47;;;8.92;70.31
13553;BME280;6847;48.830;9.116;2023-12-20T04:55:09;97983.75;;;8.90;70.22
13553;BME280;6847;48.830;9.116;2023-12-20T04:57:38;97995.38;;;8.91;70.06
13553;BME280;6847;48.830;9.116;2023-12-20T05:00:06;97997.53;;;8.89;70.18
13553;BME280;6847;48.830;9.116;2023-12-20T05:02:35;97957.16;;;8.62;70.26
13553;BME280;6847;48.830;9.116;2023-12-20T05:05:03;97994.56;;;8.90;70.17
13553;BME280;6847;48.830;9.116;2023-12-20T05:07:29;97999.41;;;8.94;70.13
13553;BME280;6847;48.830;9.116;2023-12-20T05:09:55;97961.25;;;8.70;70.70
13553;BME280;6847;48.830;9.116;2023-12-20T05:12:22;98008.31;;;8.94;70.19
13553;BME280;6847;48.830;9.116;2023-12-20T05:14:51;97994.28;;;8.92;69.77
13553;BME280;6847;48.830;9.116;2023-12-20T05:17:18;98009.69;;;8.97;70.43
13553;BME280;6847;48.830;9.116;2023-12-20T05:19:45;98015.91;;;8.97;70.75
13553;BME280;6847;48.830;9.116;2023-12-20T05:22:12;98016.72;;;8.98;70.04
13553;BME280;6847;48.830;9.116;2023-12-20T05:24:39;97934.19;;;8.49;70.18
13553;BME280;6847;48.830;9.116;2023-12-20T05:27:06;98010.00;;;9.00;70.42
13553;BME280;6847;48.830;9.116;2023-12-20T05:29:33;98018.91;;;9.01;69.76
13553;BME280;6847;48.830;9.116;2023-12-20T05:32:01;98022.13;;;8.98;70.12
13553;BME280;6847;48.830;9.116;2023-12-20T05:34:30;97914.59;;;8.27;70.44
13553;BME280;6847;48.830;9.116;2023-12-20T05:36:57;98031.59;;;9.00;69.94
13553;BME280;6847;48.830;9.116;2023-12-20T05:39:24;98039.69;;;9.00;70.55
13553;BME280;6847;48.830;9.116;2023-12-20T05:41:51;98040.78;;;8.99;69.54
13553;BME280;6847;48.830;9.116;2023-12-20T05:44:19;98040.22;;;8.97;70.00
13553;BME280;6847;48.830;9.116;2023-12-20T05:46:45;98043.44;;;8.94;70.20
13553;BME280;6847;48.830;9.116;2023-12-20T05:49:14;98044.50;;;8.93;69.98
13553;BME280;6847;48.830;9.116;2023-12-20T05:51:42;98012.81;;;8.68;70.69
13553;BME280;6847;48.830;9.116;2023-12-20T05:54:11;97950.19;;;8.24;70.29
13553;BME280;6847;48.830;9.116;2023-12-20T05:56:39;98052.03;;;8.86;69.98
13553;BME280;6847;48.830;9.116;2023-12-20T05:59:21;98062.84;;;8.86;70.12
13553;BME280;6847;48.830;9.116;2023-12-20T06:01:50;98069.88;;;8.87;70.77
13553;BME280;6847;48.830;9.116;2023-12-20T06:04:18;98069.34;;;8.90;70.21
13553;BME280;6847;48.830;9.116;2023-12-20T06:06:45;98073.13;;;8.94;69.84
13553;BME280;6847;48.830;9.116;2023-12-20T06:09:12;98065.56;;;8.91;70.08
13553;BME280;6847;48.830;9.116;2023-12-20T06:11:40;98061.25;;;8.95;70.75
13553;BME280;6847;48.830;9.116;2023-12-20T06:14:07;98071.53;;;8.98;70.30
13553;BME280;6847;48.830;9.116;2023-12-20T06:16:34;98080.19;;;9.00;70.01
13553;BME280;6847;48.830;9.116;2023-12-20T06:19:03;98078.03;;;9.02;70.74
13553;BME280;6847;48.830;9.116;2023-12-20T06:21:31;98073.75;;;9.06;70.45
13553;BME280;6847;48.830;9.116;2023-12-20T06:23:58;98087.53;;;9.10;69.92
13553;BME280;6847;48.830;9.116;2023-12-20T06:26:25;98078.06;;;9.12;70.75
13553;BME280;6847;48.830;9.116;2023-12-20T06:28:51;98081.34;;;9.14;70.19
13553;BME280;6847;48.830;9.116;2023-12-20T06:31:18;98064.56;;;9.07;69.93
13553;BME280;6847;48.830;9.116;2023-12-20T06:33:44;98067.81;;;9.09;69.83
13553;BME280;6847;48.830;9.116;2023-12-20T06:36:11;98070.22;;;9.06;70.74
13553;BME280;6847;48.830;9.116;2023-12-20T06:38:40;98072.13;;;9.05;69.93
13553;BME280;6847;48.830;9.116;2023-12-20T06:41:08;98069.63;;;8.94;70.11
13553;BME280;6847;48.830;9.116;2023-12-20T06:43:34;98047.69;;;8.85;70.04
13553;BME280;6847;48.830;9.116;2023-12-20T06:46:01;98049.31;;;8.81;69.65
13553;BME280;6847;48.830;9.116;2023-12-20T06:48:28;98086.16;;;9.07;70.37
13553;BME280;6847;48.830;9.116;2023-12-20T06:50:56;98086.16;;;9.07;70.91
13553;BME280;6847;48.830;9.116;2023-12-20T06:53:22;98087.00;;;9.08;70.84
13553;BME280;6847;48.830;9.116;2023-12-20T06:55:55;98015.47;;;8.63;70.82
13553;BME280;6847;48.830;9.116;2023-12-20T06:58:22;98063.41;;;8.93;71.01
13553;BME280;6847;48.830;9.116;2023-12-20T07:00:48;98100.81;;;9.16;70.17
13553;BME280;6847;48.830;9.116;2023-12-20T07:03:15;97906.88;;;7.99;70.94
13553;BME280;6847;48.830;9.116;2023-12-20T07:05:42;98098.06;;;9.11;70.71
13553;BME280;6847;48.830;9.116;2023-12-20T07:08:09;98055.28;;;8.88;70.93
13553;BME280;6847;48.830;9.116;2023-12-20T07:10:36;98104.88;;;9.19;70.33
13553;BME280;6847;48.830;9.116;2023-12-20T07:13:05;98089.66;;;9.03;70.66
13553;BME280;6847;48.830;9.116;2023-12-20T07:15:31;98121.91;;;9.19;70.98
13553;BME280;6847;48.830;9.116;2023-12-20T07:17:58;98124.28;;;9.16;71.19
13553;BME280;6847;48.830;9.116;2023-12-20T07:20:26;98122.66;;;9.15;70.80
13553;BME280;6847;48.830;9.116;2023-12-20T07:22:53;98126.69;;;9.12;70.96
13553;BME280;6847;48.830;9.116;2023-12-20T07:25:30;98147.78;;;9.10;71.31
13553;BME280;6847;48.830;9.116;2023-12-20T07:27:59;98153.66;;;9.02;71.26
13553;BME280;6847;48.830;9.116;2023-12-20T07:30:27;98124.38;;;8.84;71.11
13553;BME280;6847;48.830;9.116;2023-12-20T07:32:57;98140.63;;;8.94;70.77
13553;BME280;6847;48.830;9.116;2023-12-20T07:35:24;98141.19;;;8.91;70.99
13553;BME280;6847;48.830;9.116;2023-12-20T07:37:51;98139.81;;;8.88;71.08
13553;BME280;6847;48.830;9.116;2023-12-20T07:40:19;98147.59;;;8.85;71.33
13553;BME280;6847;48.830;9.116;2023-12-20T07:42:45;98143.53;;;8.82;71.09
13553;BME280;6847;48.830;9.116;2023-12-20T07:45:12;98146.50;;;8.81;71.32
13553;BME280;6847;48.830;9.116;2023-12-20T07:47:40;98097.69;;;8.50;70.84
13553;BME280;6847;48.830;9.116;2023-12-20T07:50:08;98143.25;;;8.79;70.83
13553;BME280;6847;48.830;9.116;2023-12-20T07:52:35;98133.78;;;8.76;71.24
13553;BME280;6847;48.830;9.116;2023-12-20T07:55:02;98136.44;;;8.71;71.17
13553;BME280;6847;48.830;9.116;2023-12-20T07:57:30;98150.72;;;8.67;71.31
13553;BME280;6847;48.830;9.116;2023-12-20T07:59:57;98159.84;;;8.61;71.14
13553;BME280;6847;48.830;9.116;2023-12-20T08:02:24;98156.53;;;8.53;70.64
13553;BME280;6847;48.830;9.116;2023-12-20T08:04:53;98084.00;;;7.98;70.90
13553;BME280;6847;48.830;9.116;2023-12-20T08:07:21;98174.78;;;8.41;71.04
13553;BME280;6847;48.830;9.116;2023-12-20T08:09:49;98132.97;;;8.12;70.66
13553;BME280;6847;48.830;9.116;2023-12-20T08:12:17;98176.63;;;8.36;70.67
13553;BME280;6847;48.830;9.116;2023-12-20T08:14:43;98188.28;;;8.41;70.96
13553;BME280;6847;48.830;9.116;2023-12-20T08:17:11;98165.53;;;8.32;70.97
13553;BME280;6847;48.830;9.116;2023-12-20T08:19:39;98186.41;;;8.42;70.41
13553;BME280;6847;48.830;9.116;2023-12-20T08:22:08;98197.44;;;8.40;70.41
13553;BME280;6847;48.830;9.116;2023-12-20T08:24:35;98193.63;;;8.36;70.57
13553;BME280;6847;48.830;9.116;2023-12-20T08:27:02;98185.41;;;8.26;70.27
13553;BME280;6847;48.830;9.116;2023-12-20T08:29:28;98195.69;;;8.29;70.39
13553;BME280;6847;48.830;9.116;2023-12-20T08:31:55;98195.44;;;8.31;71.03
13553;BME280;6847;48.830;9.116;2023-12-20T08:34:23;98194.19;;;8.38;70.15
13553;BME280;6847;48.830;9.116;2023-12-20T08:36:51;98193.94;;;8.40;70.02
13553;BME280;6847;48.830;9.116;2023-12-20T08:39:19;98045.56;;;7.54;70.21
13553;BME280;6847;48.830;9.116;2023-12-20T08:41:47;98203.06;;;8.66;69.71
13553;BME280;6847;48.830;9.116;2023-12-20T08:44:13;98216.19;;;10.46;66.63
13553;BME280;6847;48.830;9.116;2023-12-20T08:46:40;98207.25;;;12.55;62.00
13553;BME280;6847;48.830;9.116;2023-12-20T08:49:07;98216.94;;;14.29;58.66
13553;BME280;6847;48.830;9.116;2023-12-20T08:51:35;98218.09;;;15.63;56.53
13553;BME280;6847;48.830;9.116;2023-12-20T08:54:01;98227.59;;;16.70;54.57
13553;BME280;6847;48.830;9.116;2023-12-20T08:56:34;98232.63;;;17.44;53.16
13553;BME280;6847;48.830;9.116;2023-12-20T08:59:02;98243.78;;;18.18;52.79
13553;BME280;6847;48.830;9.116;2023-12-20T09:01:35;98223.59;;;18.96;51.51
13553;BME280;6847;48.830;9.116;2023-12-20T09:04:03;98193.00;;;19.32;50.49
13553;BME280;6847;48.830;9.116;2023-12-20T09:06:31;98219.25;;;19.76;50.29
13553;BME280;6847;48.830;9.116;2023-12-20T09:09:00;98223.75;;;19.81;50.09
13553;BME280;6847;48.830;9.116;2023-12-20T09:11:27;98223.34;;;20.00;50.00
13553;BME280;6847;48.830;9.116;2023-12-20T09:13:55;98224.44;;;20.07;50.13
13553;BME280;6847;48.830;9.116;2023-12-20T09:16:24;98200.63;;;19.82;50.46
13553;BME280;6847;48.830;9.116;2023-12-20T09:18:51;98230.66;;;20.25;50.45
13553;BME280;6847;48.830;9.116;2023-12-20T09:21:18;98205.97;;;20.16;50.16
13553;BME280;6847;48.830;9.116;2023-12-20T09:23:45;98221.47;;;20.21;50.12
13553;BME280;6847;48.830;9.116;2023-12-20T09:26:12;98209.59;;;20.29;49.92
13553;BME280;6847;48.830;9.116;2023-12-20T09:28:38;98231.16;;;20.18;49.70
13553;BME280;6847;48.830;9.116;2023-12-20T09:31:12;98208.38;;;19.80;50.80
13553;BME280;6847;48.830;9.116;2023-12-20T09:33:39;98234.94;;;19.76;51.44
13553;BME280;6847;48.830;9.116;2023-12-20T09:36:06;98197.22;;;19.21;52.08
13553;BME280;6847;48.830;9.116;2023-12-20T09:38:32;98181.94;;;18.94;52.70
13553;BME280;6847;48.830;9.116;2023-12-20T09:40:59;98147.94;;;18.69;52.80
13553;BME280;6847;48.830;9.116;2023-12-20T09:43:34;98249.84;;;19.40;52.88
13553;BME280;6847;48.830;9.116;2023-12-20T09:46:06;98220.13;;;19.42;52.79
13553;BME280;6847;48.830;9.116;2023-12-20T09:48:35;98246.56;;;19.73;52.38
13553;BME280;6847;48.830;9.116;2023-12-20T09:51:03;98229.31;;;19.46;52.41
13553;BME280;6847;48.830;9.116;2023-12-20T09:53:30;98200.41;;;19.40;52.75
13553;BME280;6847;48.830;9.116;2023-12-20T09:56:00;98262.56;;;19.71;52.95
13553;BME280;6847;48.830;9.116;2023-12-20T09:58:27;98249.09;;;18.79;54.96
13553;BME280;6847;48.830;9.116;2023-12-20T10:00:55;98244.41;;;17.75;57.20
13553;BME280;6847;48.830;9.116;2023-12-20T10:03:25;98233.06;;;17.59;57.89
13553;BME280;6847;48.830;9.116;2023-12-20T10:05:54;98234.81;;;17.86;57.49
13553;BME280;6847;48.830;9.116;2023-12-20T10:08:24;98242.53;;;17.09;58.28
13553;BME280;6847;48.830;9.116;2023-12-20T10:10:50;98243.03;;;16.39;59.73
13553;BME280;6847;48.830;9.116;2023-12-20T10:13:17;98248.41;;;15.62;60.63
13553;BME280;6847;48.830;9.116;2023-12-20T10:15:44;98241.34;;;14.77;61.49
13553;BME280;6847;48.830;9.116;2023-12-20T10:18:12;98236.44;;;13.94;62.52
13553;BME280;6847;48.830;9.116;2023-12-20T10:20:40;98235.50;;;13.27;63.44
13553;BME280;6847;48.830;9.116;2023-12-20T10:23:08;98219.94;;;12.70;64.09
13553;BME280;6847;48.830;9.116;2023-12-20T10:25:35;98223.59;;;12.50;64.19
13553;BME280;6847;48.830;9.116;2023-12-20T10:28:09;98214.53;;;12.20;64.96
13553;BME280;6847;48.830;9.116;2023-12-20T10:30:36;98217.31;;;12.05;65.11
13553;BME280;6847;48.830;9.116;2023-12-20T10:33:03;98160.28;;;11.46;65.51
13553;BME280;6847;48.830;9.116;2023-12-20T10:35:31;98188.19;;;11.52;65.75
13553;BME280;6847;48.830;9.116;2023-12-20T10:38:03;98214.75;;;11.60;65.93
13553;BME280;6847;48.830;9.116;2023-12-20T10:40:35;98212.59;;;11.46;66.19
13553;BME280;6847;48.830;9.116;2023-12-20T10:43:03;98174.47;;;11.07;66.25
13553;BME280;6847;48.830;9.116;2023-12-20T10:45:31;98216.44;;;11.20;66.65
13553;BME280;6847;48.830;9.116;2023-12-20T10:47:58;98219.97;;;11.10;66.45
13553;BME280;6847;48.830;9.116;2023-12-20T10:50:27;98211.88;;;11.05;66.78
13553;BME280;6847;48.830;9.116;2023-12-20T10:52:58;98161.22;;;10.70;66.88
13553;BME280;6847;48.830;9.116;2023-12-20T10:55:26;98189.41;;;10.85;66.50
13553;BME280;6847;48.830;9.116;2023-12-20T10:58:07;98165.03;;;10.64;67.04
13553;BME280;6847;48.830;9.116;2023-12-20T11:00:40;98219.75;;;10.87;67.03
13553;BME280;6847;48.830;9.116;2023-12-20T11:03:09;98210.53;;;10.72;66.81
13553;BME280;6847;48.830;9.116;2023-12-20T11:05:42;98211.06;;;10.80;67.47
13553;BME280;6847;48.830;9.116;2023-12-20T11:08:17;98206.72;;;10.84;66.77
13553;BME280;6847;48.830;9.116;2023-12-20T11:10:56;98215.66;;;10.79;67.10
13553;BME280;6847;48.830;9.116;2023-12-20T11:13:32;98201.59;;;10.57;67.25
13553;BME280;6847;48.830;9.116;2023-12-20T11:16:02;98211.59;;;10.56;67.08
13553;BME280;6847;48.830;9.116;2023-12-20T11:18:30;98196.41;;;10.45;67.07
13553;BME280;6847;48.830;9.116;2023-12-20T11:21:00;98195.31;;;10.36;68.03
13553;BME280;6847;48.830;9.116;2023-12-20T11:23:30;98198.03;;;10.36;67.68
13553;BME280;6847;48.830;9.116;2023-12-20T11:26:02;98188.81;;;10.42;67.71
13553;BME280;6847;48.830;9.116;2023-12-20T11:28:31;98184.53;;;10.56;67.38
13553;BME280;6847;48.830;9.116;2023-12-20T11:31:00;98184.25;;;10.63;67.18
13553;BME280;6847;48.830;9.116;2023-12-20T11:33:30;98029.06;;;9.56;67.34
13553;BME280;6847;48.830;9.116;2023-12-20T11:35:58;98190.47;;;10.63;67.26
13553;BME280;6847;48.830;9.116;2023-12-20T11:38:25;98190.75;;;10.67;67.43
13553;BME280;6847;48.830;9.116;2023-12-20T11:40:54;98178.81;;;10.53;67.22
13553;BME280;6847;48.830;9.116;2023-12-20T11:43:31;98193.97;;;10.49;67.39
13553;BME280;6847;48.830;9.116;2023-12-20T11:46:04;98195.84;;;10.33;67.20
13553;BME280;6847;48.830;9.116;2023-12-20T11:48:33;98175.22;;;10.07;67.33
13553;BME280;6847;48.830;9.116;2023-12-20T11:51:01;98190.34;;;10.13;67.32
13553;BME280;6847;48.830;9.116;2023-12-20T11:53:33;98173.56;;;9.95;67.25
13553;BME280;6847;48.830;9.116;2023-12-20T11:56:00;98183.03;;;9.98;66.81
13553;BME280;6847;48.830;9.116;2023-12-20T11:58:28;98173.56;;;9.95;66.90
13553;BME280;6847;48.830;9.116;2023-12-20T12:00:56;98119.38;;;9.65;67.17
13553;BME280;6847;48.830;9.116;2023-12-20T12:03:23;98168.94;;;10.01;66.90
13553;BME280;6847;48.830;9.116;2023-12-20T12:05:53;98169.81;;;10.07;67.39
13553;BME280;6847;48.830;9.116;2023-12-20T12:08:20;98157.59;;;10.09;66.62
13553;BME280;6847;48.830;9.116;2023-12-20T12:10:47;98161.13;;;10.10;66.65
13553;BME280;6847;48.830;9.116;2023-12-20T12:13:15;98143.81;;;10.11;66.41
13553;BME280;6847;48.830;9.116;2023-12-20T12:15:43;98147.94;;;10.18;66.73
13553;BME280;6847;48.830;9.116;2023-12-20T12:18:16;98157.16;;;10.27;65.97
13553;BME280;6847;48.830;9.116;2023-12-20T12:20:43;98150.41;;;10.35;66.00
13553;BME280;6847;48.830;9.116;2023-12-20T12:23:11;98156.88;;;10.39;66.09
13553;BME280;6847;48.830;9.116;2023-12-20T12:25:37;98140.09;;;10.42;66.05
13553;BME280;6847;48.830;9.116;2023-12-20T12:28:06;98136.03;;;10.39;65.92
13553;BME280;6847;48.830;9.116;2023-12-20T12:30:33;98130.38;;;10.46;65.54
13553;BME280;6847;48.830;9.116;2023-12-20T12:33:00;98117.34;;;10.48;65.45
13553;BME280;6847;48.830;9.116;2023-12-20T12:35:29;98139.28;;;10.42;65.40
13553;BME280;6847;48.830;9.116;2023-12-20T12:37:59;98144.97;;;10.35;65.76
13553;BME280;6847;48.830;9.116;2023-12-20T12:40:25;98142.25;;;10.30;66.10
13553;BME280;6847;48.830;9.116;2023-12-20T12:42:52;98134.16;;;10.50;65.68
13553;BME280;6847;48.830;9.116;2023-12-20T12:45:18;98131.72;;;10.54;64.88
13553;BME280;6847;48.830;9.116;2023-12-20T12:47:45;98133.34;;;10.55;64.75
13553;BME280;6847;48.830;9.116;2023-12-20T12:50:11;98126.03;;;10.50;64.70
13553;BME280;6847;48.830;9.116;2023-12-20T12:52:39;98129.81;;;10.44;64.54
13553;BME280;6847;48.830;9.116;2023-12-20T12:55:06;98135.50;;;10.43;64.13
13553;BME280;6847;48.830;9.116;2023-12-20T12:57:33;98137.41;;;10.42;64.40
13553;BME280;6847;48.830;9.116;2023-12-20T13:00:00;98134.72;;;10.37;64.58
13553;BME280;6847;48.830;9.116;2023-12-20T13:02:28;98143.91;;;10.51;64.41
13553;BME280;6847;48.830;9.116;2023-12-20T13:04:55;98134.16;;;10.60;63.62
13553;BME280;6847;48.830;9.116;2023-12-20T13:07:22;98134.69;;;10.52;64.22
13553;BME280;6847;48.830;9.116;2023-12-20T13:09:50;98120.91;;;10.44;63.96
13553;BME280;6847;48.830;9.116;2023-12-20T13:12:16;98121.69;;;10.34;63.90
13553;BME280;6847;48.830;9.116;2023-12-20T13:14:43;98122.78;;;10.43;64.36
13553;BME280;6847;48.830;9.116;2023-12-20T13:17:10;98111.94;;;10.79;64.57
13553;BME280;6847;48.830;9.116;2023-12-20T13:19:37;98125.38;;;11.19;63.67